createdAt,value
2022-12-12T00:09:46.634Z,2.2
2022-12-12T00:24:48.451Z,0
2022-12-12T00:39:50.286Z,2.2
2022-12-12T00:54:52.140Z,46.2
2022-12-12T01:09:54.005Z,0
2022-12-12T01:24:55.823Z,0
2022-12-12T01:39:57.633Z,0
2022-12-12T01:54:59.479Z,0
2022-12-12T02:10:01.329Z,4.4
2022-12-12T02:25:03.161Z,0
2022-12-12T02:40:05.013Z,0
2022-12-12T02:55:06.872Z,0
2022-12-12T03:10:08.734Z,0
2022-12-12T03:25:10.820Z,0
2022-12-12T03:40:12.848Z,0
2022-12-12T03:55:15.145Z,0
2022-12-12T04:10:17.060Z,0
2022-12-12T04:25:18.869Z,0
2022-12-12T04:40:20.688Z,0
2022-12-12T04:55:22.538Z,0
2022-12-12T05:10:24.361Z,0
2022-12-12T05:25:26.206Z,0
2022-12-12T05:40:28.080Z,0
2022-12-12T05:55:29.931Z,0
2022-12-12T06:10:31.744Z,0
2022-12-12T06:25:33.576Z,0
2022-12-12T06:40:35.399Z,0
2022-12-12T06:55:37.251Z,0
2022-12-12T07:10:39.071Z,0
2022-12-12T07:25:40.868Z,0
2022-12-12T07:40:42.675Z,0
2022-12-12T07:55:44.492Z,2.2
2022-12-12T08:10:46.345Z,2.2
2022-12-12T08:25:48.190Z,0
2022-12-12T08:40:50.036Z,0
2022-12-12T08:55:51.880Z,0
2022-12-12T09:10:53.723Z,0
2022-12-12T09:25:55.559Z,0
2022-12-12T09:40:57.369Z,0
2022-12-12T09:55:59.245Z,0
2022-12-12T10:11:01.188Z,0
2022-12-12T10:26:03.083Z,0
2022-12-12T10:41:04.974Z,0
2022-12-12T10:56:06.867Z,0
2022-12-12T11:11:08.717Z,0
2022-12-12T11:26:10.621Z,0
2022-12-12T11:41:12.528Z,0
2022-12-12T11:56:14.452Z,0
2022-12-12T12:11:16.400Z,0
2022-12-12T12:26:18.313Z,0
2022-12-12T12:41:20.188Z,0
2022-12-12T12:56:26.040Z,0
2022-12-12T13:11:28.557Z,0
2022-12-12T13:26:30.487Z,0
2022-12-12T13:41:32.475Z,0
2022-12-12T13:56:34.474Z,0
2022-12-12T14:11:36.406Z,0
2022-12-12T14:26:38.362Z,0
2022-12-12T14:41:40.295Z,0
2022-12-12T14:56:42.982Z,0
2022-12-12T15:11:47.184Z,0
2022-12-12T15:26:49.120Z,2.2
2022-12-12T15:41:50.993Z,4.4
2022-12-12T15:56:52.905Z,8.8
2022-12-12T16:11:54.861Z,8.8
2022-12-12T16:26:56.781Z,13.2
2022-12-12T16:41:58.660Z,19.8
2022-12-12T16:57:00.556Z,26.4
2022-12-12T17:12:02.458Z,28.6
2022-12-12T17:27:04.361Z,44
2022-12-12T17:42:06.269Z,94.6
2022-12-12T17:57:08.180Z,90.2
2022-12-12T18:12:10.134Z,96.8
2022-12-12T18:27:12.045Z,66
2022-12-12T18:42:13.928Z,83.6
2022-12-12T18:57:15.832Z,77
2022-12-12T19:12:17.708Z,83.6
2022-12-12T19:27:19.609Z,92.4
2022-12-12T19:42:21.513Z,52.8
2022-12-12T19:57:23.397Z,72.6
2022-12-12T20:12:25.301Z,70.4
2022-12-12T20:27:27.231Z,68.2
2022-12-12T20:42:29.145Z,66
2022-12-12T20:57:31.055Z,52.8
2022-12-12T21:12:32.955Z,63.8
2022-12-12T21:27:34.859Z,55
2022-12-12T21:42:36.832Z,55
2022-12-12T21:57:38.699Z,44
2022-12-12T22:12:40.630Z,39.6
2022-12-12T22:27:42.621Z,28.6
2022-12-12T22:42:44.589Z,33
2022-12-12T22:57:46.491Z,24.2
2022-12-12T23:12:48.432Z,59.4
2022-12-12T23:27:50.309Z,59.4
2022-12-12T23:42:52.218Z,52.8
2022-12-12T23:57:54.199Z,4.4
